createdAt,value
2019-06-15T00:01:01.895Z,28.16
2019-06-15T00:06:03.244Z,27.79
2019-06-15T00:11:04.633Z,27.97
2019-06-15T00:16:06.035Z,28.01
2019-06-15T00:21:08.069Z,28.18
2019-06-15T00:26:09.461Z,28.05
2019-06-15T00:31:10.867Z,27.94
2019-06-15T00:36:12.233Z,28.14
2019-06-15T00:41:13.611Z,28.07
2019-06-15T00:46:15.022Z,28.00
2019-06-15T00:51:16.392Z,28.21
2019-06-15T00:56:17.782Z,28.12
2019-06-15T01:01:19.150Z,28.15
2019-06-15T01:06:20.523Z,28.27
2019-06-15T01:11:21.814Z,28.22
2019-06-15T01:16:23.227Z,28.28
2019-06-15T01:21:25.328Z,27.46
2019-06-15T01:26:26.771Z,27.50
2019-06-15T01:31:28.880Z,27.87
2019-06-15T01:36:30.238Z,28.04
2019-06-15T01:41:31.599Z,28.11
2019-06-15T01:46:33.008Z,27.97
2019-06-15T01:51:34.458Z,27.92
2019-06-15T01:56:35.809Z,27.05
2019-06-15T02:01:37.181Z,26.04
2019-06-15T02:06:38.542Z,27.01
2019-06-15T02:11:39.918Z,27.35
2019-06-15T02:16:41.298Z,27.47
2019-06-15T02:21:42.607Z,27.60
2019-06-15T02:26:43.961Z,27.48
2019-06-15T02:31:45.286Z,26.10
2019-06-15T02:36:46.714Z,26.44
2019-06-15T02:41:48.085Z,26.66
2019-06-15T02:46:49.447Z,26.91
2019-06-15T02:51:50.887Z,26.90
2019-06-15T02:56:52.321Z,26.87
2019-06-15T03:01:53.696Z,26.95
2019-06-15T03:06:55.064Z,27.07
2019-06-15T03:11:56.411Z,27.05
2019-06-15T03:16:57.904Z,26.97
2019-06-15T03:21:59.194Z,26.93
2019-06-15T03:27:00.601Z,26.98
2019-06-15T03:32:02.034Z,26.78
2019-06-15T03:37:03.325Z,26.31
2019-06-15T03:42:04.660Z,26.58
2019-06-15T03:47:06.044Z,26.70
2019-06-15T03:52:07.379Z,26.80
2019-06-15T03:57:08.730Z,26.78
2019-06-15T04:02:10.063Z,26.84
2019-06-15T04:07:11.406Z,26.64
2019-06-15T04:12:12.710Z,26.67
2019-06-15T04:17:14.171Z,26.75
2019-06-15T04:22:15.524Z,26.77
2019-06-15T04:27:16.864Z,26.76
2019-06-15T04:32:18.173Z,26.64
2019-06-15T04:37:19.588Z,26.63
2019-06-15T04:42:20.888Z,26.70
2019-06-15T04:47:22.228Z,26.69
2019-06-15T04:52:23.573Z,26.77
2019-06-15T04:57:24.933Z,26.55
2019-06-15T05:02:27.362Z,26.71
2019-06-15T05:07:27.664Z,26.85
2019-06-15T05:12:29.021Z,25.75
2019-06-15T05:17:30.369Z,24.67
2019-06-15T05:22:31.828Z,25.45
2019-06-15T05:27:33.212Z,26.05
2019-06-15T05:32:34.625Z,26.05
2019-06-15T05:37:36.059Z,26.57
2019-06-15T05:42:37.420Z,26.55
2019-06-15T05:47:38.772Z,26.40
2019-06-15T05:52:40.909Z,26.79
2019-06-15T05:57:42.262Z,26.90
2019-06-15T06:02:43.672Z,26.76
2019-06-15T06:07:45.782Z,27.10
2019-06-15T06:12:47.152Z,27.13
2019-06-15T06:17:48.519Z,27.35
2019-06-15T06:22:49.989Z,26.49
2019-06-15T06:27:51.367Z,27.16
2019-06-15T06:32:52.788Z,26.62
2019-06-15T06:37:54.889Z,26.58
2019-06-15T06:42:56.325Z,27.17
2019-06-15T06:47:57.677Z,26.92
2019-06-15T06:52:59.020Z,26.79
2019-06-15T06:58:00.383Z,27.07
2019-06-15T07:03:05.644Z,27.45
2019-06-15T07:08:07.033Z,27.25
2019-06-15T07:13:08.381Z,27.50
2019-06-15T07:18:09.720Z,27.17
2019-06-15T07:23:11.096Z,27.04
2019-06-15T07:28:12.494Z,27.72
2019-06-15T07:33:13.817Z,27.08
2019-06-15T07:38:15.137Z,26.76
2019-06-15T07:43:16.493Z,26.87
2019-06-15T07:48:17.840Z,27.15
2019-06-15T07:53:19.205Z,26.44
2019-06-15T07:58:24.584Z,26.68
2019-06-15T08:03:22.721Z,26.37
2019-06-15T08:08:24.209Z,27.17
2019-06-15T08:13:25.488Z,26.49
2019-06-15T08:18:26.927Z,26.63
2019-06-15T08:23:28.357Z,26.17
2019-06-15T08:28:39.824Z,26.68
2019-06-15T08:33:31.070Z,26.45
2019-06-15T08:38:33.164Z,27.62
2019-06-15T08:43:34.541Z,26.90
2019-06-15T08:48:35.936Z,26.42
2019-06-15T08:53:37.390Z,26.98
2019-06-15T08:58:38.879Z,27.44
2019-06-15T09:03:40.297Z,27.44
2019-06-15T09:08:41.652Z,26.83
2019-06-15T09:13:43.173Z,27.52
2019-06-15T09:18:44.584Z,27.09
2019-06-15T09:23:46.061Z,27.52
2019-06-15T09:28:48.232Z,27.07
2019-06-15T09:33:49.532Z,27.72
2019-06-15T09:38:50.873Z,27.41
2019-06-15T09:43:52.953Z,27.71
2019-06-15T09:48:54.313Z,27.49
2019-06-15T09:53:56.421Z,27.73
2019-06-15T09:58:57.756Z,27.71
2019-06-15T10:03:59.130Z,28.01
2019-06-15T10:09:00.465Z,27.81
2019-06-15T10:14:01.819Z,28.31
2019-06-15T10:19:03.218Z,28.29
2019-06-15T10:24:04.641Z,28.92
2019-06-15T10:29:06.080Z,27.72
2019-06-15T10:34:07.430Z,27.88
2019-06-15T10:39:09.504Z,28.75
2019-06-15T10:44:11.630Z,27.94
2019-06-15T10:49:12.953Z,28.95
2019-06-15T10:54:15.104Z,29.36
2019-06-15T10:59:16.486Z,29.62
2019-06-15T11:04:17.841Z,29.34
2019-06-15T11:09:19.194Z,28.92
2019-06-15T11:14:20.546Z,29.13
2019-06-15T11:19:21.939Z,28.58
2019-06-15T11:24:23.326Z,28.66
2019-06-15T11:29:25.387Z,30.07
2019-06-15T11:34:26.757Z,29.47
2019-06-15T11:39:28.228Z,29.59
2019-06-15T11:44:29.578Z,29.19
2019-06-15T11:49:30.937Z,30.50
2019-06-15T11:54:32.298Z,30.88
2019-06-15T11:59:33.781Z,30.15
2019-06-15T12:04:35.142Z,28.97
2019-06-15T12:09:36.490Z,29.30
2019-06-15T12:14:37.860Z,29.29
2019-06-15T12:19:39.242Z,29.94
2019-06-15T12:24:40.653Z,29.39
2019-06-15T12:29:42.036Z,30.20
2019-06-15T12:34:43.433Z,29.15
2019-06-15T12:39:44.797Z,29.73
2019-06-15T12:44:46.224Z,30.99
2019-06-15T12:49:47.552Z,29.91
2019-06-15T12:54:49.620Z,31.16
2019-06-15T12:59:51.034Z,30.16
2019-06-15T13:04:52.383Z,29.73
2019-06-15T13:09:54.517Z,29.97
2019-06-15T13:14:55.971Z,29.85
2019-06-15T13:19:57.405Z,29.62
2019-06-15T13:24:58.922Z,29.30
2019-06-15T13:30:00.279Z,29.49
2019-06-15T13:35:01.595Z,28.81
2019-06-15T13:40:03.818Z,30.47
2019-06-15T13:45:05.710Z,29.49
2019-06-15T13:50:07.056Z,29.98
2019-06-15T13:55:08.372Z,29.58
2019-06-15T14:00:09.708Z,30.58
2019-06-15T14:05:11.031Z,29.52
2019-06-15T14:10:12.410Z,29.78
2019-06-15T14:15:13.771Z,29.24
2019-06-15T14:20:15.150Z,28.80
2019-06-15T14:25:16.553Z,29.59
2019-06-15T14:30:18.083Z,29.32
2019-06-15T14:35:19.378Z,29.38
2019-06-15T14:40:20.682Z,29.35
2019-06-15T14:45:22.012Z,29.46
2019-06-15T14:50:23.362Z,28.80
2019-06-15T14:55:26.267Z,29.23
2019-06-15T15:00:26.193Z,29.75
2019-06-15T15:05:27.690Z,29.22
2019-06-15T15:10:28.922Z,28.80
2019-06-15T15:15:30.270Z,29.25
2019-06-15T15:20:31.689Z,28.33
2019-06-15T15:25:33.157Z,28.75
2019-06-15T15:30:39.267Z,29.31
2019-06-15T15:35:40.630Z,28.54
2019-06-15T15:40:41.996Z,28.08
2019-06-15T15:45:45.909Z,28.63
2019-06-15T15:50:46.855Z,28.06
2019-06-15T15:55:46.821Z,28.25
2019-06-15T16:00:47.434Z,28.25
2019-06-15T16:05:49.505Z,28.42
2019-06-15T16:10:50.865Z,28.68
2019-06-15T16:15:52.433Z,28.44
2019-06-15T16:20:54.340Z,28.21
2019-06-15T16:25:56.749Z,28.28
2019-06-15T16:31:06.761Z,28.30
2019-06-15T16:35:59.982Z,28.58
2019-06-15T16:41:01.330Z,28.69
2019-06-15T16:46:02.725Z,28.69
2019-06-15T16:51:06.545Z,29.00
2019-06-15T16:56:06.096Z,29.18
2019-06-15T17:01:07.070Z,28.93
2019-06-15T17:06:08.402Z,29.57
2019-06-15T17:11:09.726Z,29.03
2019-06-15T17:16:11.895Z,28.86
2019-06-15T17:21:14.000Z,28.88
2019-06-15T17:26:16.834Z,29.32
2019-06-15T17:31:16.752Z,29.11
2019-06-15T17:36:18.078Z,29.11
2019-06-15T17:41:20.171Z,28.59
2019-06-15T17:46:21.513Z,28.40
2019-06-15T17:51:22.881Z,28.52
2019-06-15T17:56:26.651Z,28.39
2019-06-15T18:01:26.606Z,28.33
2019-06-15T18:06:27.101Z,27.88
2019-06-15T18:11:28.410Z,28.03
2019-06-15T18:16:30.582Z,27.59
2019-06-15T18:21:31.098Z,27.77
2019-06-15T18:26:32.581Z,26.94
2019-06-15T18:31:36.311Z,27.53
2019-06-15T18:36:36.578Z,26.98
2019-06-15T18:41:37.112Z,26.92
2019-06-15T18:46:38.938Z,26.86
2019-06-15T18:51:40.321Z,26.82
2019-06-15T18:56:41.633Z,27.27
2019-06-15T19:01:43.045Z,27.81
2019-06-15T19:06:46.621Z,27.97
2019-06-15T19:11:45.836Z,27.65
2019-06-15T19:16:47.301Z,27.56
2019-06-15T19:21:57.153Z,27.60
2019-06-15T19:26:58.299Z,27.55
2019-06-15T19:31:58.825Z,27.31
2019-06-15T19:37:00.169Z,27.35
2019-06-15T19:42:01.613Z,27.21
2019-06-15T19:47:03.616Z,27.25
2019-06-15T19:52:06.679Z,27.45
2019-06-15T19:57:07.858Z,27.30
2019-06-15T20:02:13.803Z,27.38
2019-06-15T20:07:17.037Z,27.49
2019-06-15T20:12:21.845Z,27.58
2019-06-15T20:17:19.670Z,27.36
2019-06-15T20:22:21.786Z,27.31
2019-06-15T20:27:23.093Z,27.14
2019-06-15T20:32:26.258Z,27.07
2019-06-15T20:37:26.278Z,27.17
2019-06-15T20:42:27.193Z,27.21
2019-06-15T20:47:28.528Z,27.18
2019-06-15T20:52:29.930Z,27.24
2019-06-15T20:57:31.281Z,27.13
2019-06-15T21:02:32.621Z,26.84
2019-06-15T21:07:36.160Z,26.89
2019-06-15T21:12:37.631Z,26.79
2019-06-15T21:17:37.200Z,26.83
2019-06-15T21:22:38.185Z,26.84
2019-06-15T21:27:39.638Z,26.77
2019-06-15T21:32:40.979Z,26.73
2019-06-15T21:37:43.082Z,26.59
2019-06-15T21:42:46.727Z,26.45
2019-06-15T21:47:46.403Z,26.51
2019-06-15T21:52:47.196Z,26.35
2019-06-15T21:57:48.539Z,26.37
2019-06-15T22:02:49.914Z,26.05
2019-06-15T22:07:51.265Z,26.02
2019-06-15T22:12:52.652Z,24.39
2019-06-15T22:17:54.051Z,22.63
2019-06-15T22:22:55.329Z,21.38
2019-06-15T22:27:57.429Z,19.85
2019-06-15T22:32:58.778Z,19.41
2019-06-15T22:38:00.140Z,18.26
2019-06-15T22:43:01.572Z,17.79
2019-06-15T22:48:02.930Z,18.09
2019-06-15T22:53:07.141Z,19.00
2019-06-15T22:58:06.507Z,18.81
2019-06-15T23:03:07.149Z,18.77
2019-06-15T23:08:08.512Z,19.11
2019-06-15T23:13:09.849Z,18.42
2019-06-15T23:18:11.306Z,18.35
2019-06-15T23:23:12.610Z,18.98
2019-06-15T23:28:16.358Z,18.92
2019-06-15T23:33:17.228Z,18.82
2019-06-15T23:38:16.833Z,19.34
2019-06-15T23:43:18.186Z,19.69
2019-06-15T23:48:19.522Z,19.67
2019-06-15T23:53:20.920Z,19.55
2019-06-15T23:58:23.097Z,19.92
